sensor_id;sensor_type;location;lat;lon;timestamp;pressure;altitude;pressure_sealevel;temperature;humidity
55289;BME280;41154;45.394;5.734;2023-06-24T00:02:06;97520.19;;;15.44;100.00
55289;BME280;41154;45.394;5.734;2023-06-24T00:04:33;97523.13;;;15.27;100.00
55289;BME280;41154;45.394;5.734;2023-06-24T00:06:59;97520.34;;;14.97;100.00
55289;BME280;41154;45.394;5.734;2023-06-24T00:09:26;97507.66;;;14.92;100.00
55289;BME280;41154;45.394;5.734;2023-06-24T00:11:57;97512.56;;;15.10;100.00
55289;BME280;41154;45.394;5.734;2023-06-24T00:14:27;97512.59;;;15.31;100.00
55289;BME280;41154;45.394;5.734;2023-06-24T00:16:54;97505.84;;;15.34;100.00
55289;BME280;41154;45.394;5.734;2023-06-24T00:19:21;97499.91;;;15.47;100.00
55289;BME280;41154;45.394;5.734;2023-06-24T00:21:51;97514.78;;;15.50;100.00
55289;BME280;41154;45.394;5.734;2023-06-24T00:24:21;97525.88;;;15.48;100.00
55289;BME280;41154;45.394;5.734;2023-06-24T00:26:51;97519.59;;;15.17;100.00
55289;BME280;41154;45.394;5.734;2023-06-24T00:29:18;97518.47;;;14.97;100.00
55289;BME280;41154;45.394;5.734;2023-06-24T00:31:44;97520.09;;;14.93;100.00
55289;BME280;41154;45.394;5.734;2023-06-24T00:34:10;97513.25;;;14.80;100.00
55289;BME280;41154;45.394;5.734;2023-06-24T00:36:37;97525.97;;;14.80;100.00
55289;BME280;41154;45.394;5.734;2023-06-24T00:39:05;97515.97;;;14.80;100.00
55289;BME280;41154;45.394;5.734;2023-06-24T00:41:33;97516.03;;;14.96;100.00
55289;BME280;41154;45.394;5.734;2023-06-24T00:43:59;97507.97;;;15.06;100.00
55289;BME280;41154;45.394;5.734;2023-06-24T00:46:26;97505.28;;;15.21;100.00
55289;BME280;41154;45.394;5.734;2023-06-24T00:48:56;97505.28;;;15.26;100.00
55289;BME280;41154;45.394;5.734;2023-06-24T00:51:22;97502.25;;;14.92;100.00
55289;BME280;41154;45.394;5.734;2023-06-24T00:53:58;97500.13;;;14.41;100.00
55289;BME280;41154;45.394;5.734;2023-06-24T00:56:31;97503.00;;;14.77;100.00
55289;BME280;41154;45.394;5.734;2023-06-24T00:59:02;97496.31;;;14.95;100.00
55289;BME280;41154;45.394;5.734;2023-06-24T01:01:30;97496.38;;;15.31;100.00
55289;BME280;41154;45.394;5.734;2023-06-24T01:04:00;97492.00;;;15.04;100.00
55289;BME280;41154;45.394;5.734;2023-06-24T01:06:28;97494.63;;;14.79;100.00
55289;BME280;41154;45.394;5.734;2023-06-24T01:08:58;97496.78;;;14.71;100.00
55289;BME280;41154;45.394;5.734;2023-06-24T01:11:29;97496.19;;;14.64;100.00
55289;BME280;41154;45.394;5.734;2023-06-24T01:13:55;97494.75;;;15.15;100.00
55289;BME280;41154;45.394;5.734;2023-06-24T01:16:35;97491.09;;;14.68;100.00
55289;BME280;41154;45.394;5.734;2023-06-24T01:22:06;97485.81;;;14.35;100.00
55289;BME280;41154;45.394;5.734;2023-06-24T01:27:24;97489.63;;;14.45;100.00
55289;BME280;41154;45.394;5.734;2023-06-24T01:30:13;97487.25;;;14.59;100.00
55289;BME280;41154;45.394;5.734;2023-06-24T01:32:50;97480.97;;;14.43;100.00
55289;BME280;41154;45.394;5.734;2023-06-24T01:35:24;97485.03;;;14.45;100.00
55289;BME280;41154;45.394;5.734;2023-06-24T01:37:53;97488.00;;;14.44;100.00
55289;BME280;41154;45.394;5.734;2023-06-24T01:40:29;97497.22;;;14.58;100.00
55289;BME280;41154;45.394;5.734;2023-06-24T01:43:00;97486.75;;;14.14;100.00
55289;BME280;41154;45.394;5.734;2023-06-24T01:45:42;97487.38;;;14.26;100.00
55289;BME280;41154;45.394;5.734;2023-06-24T01:48:15;97486.53;;;14.26;100.00
55289;BME280;41154;45.394;5.734;2023-06-24T01:50:57;97482.59;;;14.44;100.00
55289;BME280;41154;45.394;5.734;2023-06-24T01:53:24;97477.19;;;14.44;100.00
55289;BME280;41154;45.394;5.734;2023-06-24T01:55:54;97481.28;;;14.56;100.00
55289;BME280;41154;45.394;5.734;2023-06-24T01:58:21;97481.78;;;14.43;100.00
55289;BME280;41154;45.394;5.734;2023-06-24T02:00:48;97471.09;;;14.69;100.00
55289;BME280;41154;45.394;5.734;2023-06-24T02:03:15;97473.31;;;14.82;100.00
55289;BME280;41154;45.394;5.734;2023-06-24T02:05:42;97478.19;;;14.90;100.00
55289;BME280;41154;45.394;5.734;2023-06-24T02:08:11;97479.69;;;14.55;100.00
55289;BME280;41154;45.394;5.734;2023-06-24T02:10:39;97480.97;;;14.43;100.00
55289;BME280;41154;45.394;5.734;2023-06-24T02:13:07;97481.56;;;14.55;100.00
55289;BME280;41154;45.394;5.734;2023-06-24T02:15:36;97478.16;;;14.75;100.00
55289;BME280;41154;45.394;5.734;2023-06-24T02:18:06;97473.00;;;14.73;100.00
55289;BME280;41154;45.394;5.734;2023-06-24T02:20:36;97479.63;;;15.34;100.00
55289;BME280;41154;45.394;5.734;2023-06-24T02:23:06;97481.78;;;15.42;100.00
55289;BME280;41154;45.394;5.734;2023-06-24T02:25:34;97467.47;;;15.57;100.00
55289;BME280;41154;45.394;5.734;2023-06-24T02:28:00;97469.38;;;15.72;100.00
55289;BME280;41154;45.394;5.734;2023-06-24T02:30:26;97462.88;;;15.73;100.00
55289;BME280;41154;45.394;5.734;2023-06-24T02:32:53;97472.84;;;15.32;100.00
55289;BME280;41154;45.394;5.734;2023-06-24T02:35:20;97465.44;;;14.70;100.00
55289;BME280;41154;45.394;5.734;2023-06-24T02:37:47;97473.56;;;14.76;100.00
55289;BME280;41154;45.394;5.734;2023-06-24T02:40:15;97465.94;;;14.57;100.00
55289;BME280;41154;45.394;5.734;2023-06-24T02:42:42;97464.47;;;14.34;100.00
55289;BME280;41154;45.394;5.734;2023-06-24T02:45:09;97464.94;;;14.26;100.00
55289;BME280;41154;45.394;5.734;2023-06-24T02:47:36;97457.44;;;14.33;100.00
55289;BME280;41154;45.394;5.734;2023-06-24T02:50:04;97458.31;;;14.44;100.00
55289;BME280;41154;45.394;5.734;2023-06-24T02:52:31;97459.16;;;14.49;100.00
55289;BME280;41154;45.394;5.734;2023-06-24T02:54:57;97460.47;;;14.42;100.00
55289;BME280;41154;45.394;5.734;2023-06-24T02:57:25;97463.88;;;14.27;100.00
55289;BME280;41154;45.394;5.734;2023-06-24T03:00:17;97460.38;;;14.21;100.00
55289;BME280;41154;45.394;5.734;2023-06-24T03:03:10;97459.72;;;14.03;100.00
55289;BME280;41154;45.394;5.734;2023-06-24T03:05:55;97463.09;;;13.83;100.00
55289;BME280;41154;45.394;5.734;2023-06-24T03:08:26;97459.69;;;13.98;100.00
55289;BME280;41154;45.394;5.734;2023-06-24T03:10:56;97461.09;;;14.06;100.00
55289;BME280;41154;45.394;5.734;2023-06-24T03:13:24;97465.44;;;14.12;100.00
55289;BME280;41154;45.394;5.734;2023-06-24T03:16:01;97464.44;;;14.29;100.00
55289;BME280;41154;45.394;5.734;2023-06-24T03:18:30;97457.34;;;14.65;100.00
55289;BME280;41154;45.394;5.734;2023-06-24T03:20:57;97468.22;;;14.96;100.00
55289;BME280;41154;45.394;5.734;2023-06-24T03:23:26;97459.16;;;14.49;100.00
55289;BME280;41154;45.394;5.734;2023-06-24T03:25:53;97454.00;;;14.48;100.00
55289;BME280;41154;45.394;5.734;2023-06-24T03:28:18;97459.63;;;14.36;100.00
55289;BME280;41154;45.394;5.734;2023-06-24T03:30:50;97453.69;;;14.39;100.00
55289;BME280;41154;45.394;5.734;2023-06-24T03:33:19;97461.06;;;14.54;100.00
55289;BME280;41154;45.394;5.734;2023-06-24T03:35:45;97457.31;;;14.60;100.00
55289;BME280;41154;45.394;5.734;2023-06-24T03:38:14;97448.44;;;14.70;100.00
55289;BME280;41154;45.394;5.734;2023-06-24T03:40:41;97452.25;;;14.79;100.00
55289;BME280;41154;45.394;5.734;2023-06-24T03:43:07;97446.59;;;14.86;100.00
55289;BME280;41154;45.394;5.734;2023-06-24T03:45:33;97453.09;;;14.90;100.00
55289;BME280;41154;45.394;5.734;2023-06-24T03:47:59;97456.13;;;14.35;100.00
55289;BME280;41154;45.394;5.734;2023-06-24T03:50:24;97444.09;;;14.06;100.00
55289;BME280;41154;45.394;5.734;2023-06-24T03:52:51;97455.41;;;14.02;100.00
55289;BME280;41154;45.394;5.734;2023-06-24T03:55:17;97451.34;;;14.00;100.00
55289;BME280;41154;45.394;5.734;2023-06-24T03:57:42;97459.84;;;13.81;100.00
55289;BME280;41154;45.394;5.734;2023-06-24T04:00:08;97459.59;;;13.83;100.00
55289;BME280;41154;45.394;5.734;2023-06-24T04:02:43;97460.59;;;13.72;100.00
55289;BME280;41154;45.394;5.734;2023-06-24T04:05:10;97456.28;;;13.76;100.00
55289;BME280;41154;45.394;5.734;2023-06-24T04:07:36;97448.25;;;13.81;100.00
55289;BME280;41154;45.394;5.734;2023-06-24T04:10:03;97459.50;;;14.10;100.00
55289;BME280;41154;45.394;5.734;2023-06-24T04:12:35;97465.09;;;14.03;100.00
55289;BME280;41154;45.394;5.734;2023-06-24T04:15:04;97456.22;;;14.03;100.00
55289;BME280;41154;45.394;5.734;2023-06-24T04:17:32;97452.47;;;14.09;100.00
55289;BME280;41154;45.394;5.734;2023-06-24T04:19:59;97452.84;;;14.28;100.00
55289;BME280;41154;45.394;5.734;2023-06-24T04:22:26;97449.78;;;14.09;100.00
55289;BME280;41154;45.394;5.734;2023-06-24T04:24:57;97451.56;;;13.93;100.00
55289;BME280;41154;45.394;5.734;2023-06-24T04:27:23;97449.91;;;13.87;100.00
55289;BME280;41154;45.394;5.734;2023-06-24T04:29:49;97448.78;;;13.78;100.00
55289;BME280;41154;45.394;5.734;2023-06-24T04:32:15;97443.59;;;13.71;100.00
55289;BME280;41154;45.394;5.734;2023-06-24T04:34:41;97450.34;;;13.74;100.00
55289;BME280;41154;45.394;5.734;2023-06-24T04:37:07;97458.53;;;13.84;100.00
55289;BME280;41154;45.394;5.734;2023-06-24T04:39:32;97454.91;;;14.11;100.00
55289;BME280;41154;45.394;5.734;2023-06-24T04:41:59;97459.38;;;14.43;100.00
55289;BME280;41154;45.394;5.734;2023-06-24T04:44:25;97452.53;;;14.19;100.00
55289;BME280;41154;45.394;5.734;2023-06-24T04:46:52;97457.88;;;14.14;100.00
55289;BME280;41154;45.394;5.734;2023-06-24T04:49:18;97451.25;;;14.32;100.00
55289;BME280;41154;45.394;5.734;2023-06-24T04:51:44;97456.78;;;14.63;100.00
55289;BME280;41154;45.394;5.734;2023-06-24T04:54:09;97454.72;;;15.01;100.00
55289;BME280;41154;45.394;5.734;2023-06-24T04:56:39;97461.50;;;15.04;100.00
55289;BME280;41154;45.394;5.734;2023-06-24T04:59:04;97458.00;;;15.55;100.00
55289;BME280;41154;45.394;5.734;2023-06-24T05:01:30;97459.91;;;15.54;100.00
55289;BME280;41154;45.394;5.734;2023-06-24T05:03:56;97465.31;;;15.85;100.00
55289;BME280;41154;45.394;5.734;2023-06-24T05:06:21;97461.50;;;16.02;100.00
55289;BME280;41154;45.394;5.734;2023-06-24T05:08:47;97464.16;;;16.17;100.00
55289;BME280;41154;45.394;5.734;2023-06-24T05:11:13;97468.22;;;16.25;100.00
55289;BME280;41154;45.394;5.734;2023-06-24T05:13:40;97471.41;;;16.42;100.00
55289;BME280;41154;45.394;5.734;2023-06-24T05:16:06;97471.94;;;16.49;100.00
55289;BME280;41154;45.394;5.734;2023-06-24T05:18:32;97466.19;;;16.61;100.00
55289;BME280;41154;45.394;5.734;2023-06-24T05:20:57;97462.66;;;16.66;100.00
55289;BME280;41154;45.394;5.734;2023-06-24T05:23:23;97476.25;;;17.16;100.00
55289;BME280;41154;45.394;5.734;2023-06-24T05:25:49;97473.28;;;17.47;100.00
55289;BME280;41154;45.394;5.734;2023-06-24T05:28:14;97477.88;;;18.15;100.00
55289;BME280;41154;45.394;5.734;2023-06-24T05:30:41;97473.50;;;19.82;100.00
55289;BME280;41154;45.394;5.734;2023-06-24T05:33:07;97475.28;;;20.47;98.03
55289;BME280;41154;45.394;5.734;2023-06-24T05:35:33;97464.88;;;21.86;88.51
55289;BME280;41154;45.394;5.734;2023-06-24T05:38:00;97468.09;;;23.18;79.06
55289;BME280;41154;45.394;5.734;2023-06-24T05:40:26;97467.84;;;22.96;77.23
55289;BME280;41154;45.394;5.734;2023-06-24T05:42:51;97463.00;;;21.14;88.69
55289;BME280;41154;45.394;5.734;2023-06-24T05:45:17;97472.00;;;22.76;81.98
55289;BME280;41154;45.394;5.734;2023-06-24T05:47:43;97466.91;;;23.97;71.82
55289;BME280;41154;45.394;5.734;2023-06-24T05:50:09;97460.38;;;24.97;68.68
55289;BME280;41154;45.394;5.734;2023-06-24T05:52:35;97462.22;;;23.98;74.56
55289;BME280;41154;45.394;5.734;2023-06-24T05:55:01;97460.13;;;24.12;70.66
55289;BME280;41154;45.394;5.734;2023-06-24T05:57:27;97451.97;;;24.93;68.81
55289;BME280;41154;45.394;5.734;2023-06-24T05:59:53;97455.50;;;24.72;66.16
55289;BME280;41154;45.394;5.734;2023-06-24T06:02:19;97461.03;;;25.57;66.76
55289;BME280;41154;45.394;5.734;2023-06-24T06:04:44;97464.91;;;26.10;64.34
55289;BME280;41154;45.394;5.734;2023-06-24T06:07:10;97450.63;;;26.54;60.77
55289;BME280;41154;45.394;5.734;2023-06-24T06:09:36;97461.19;;;27.42;57.55
55289;BME280;41154;45.394;5.734;2023-06-24T06:12:02;97454.13;;;24.87;64.76
55289;BME280;41154;45.394;5.734;2023-06-24T06:14:30;97458.53;;;24.80;64.78
55289;BME280;41154;45.394;5.734;2023-06-24T06:16:56;97459.91;;;25.58;67.76
55289;BME280;41154;45.394;5.734;2023-06-24T06:19:21;97457.63;;;26.76;59.78
55289;BME280;41154;45.394;5.734;2023-06-24T06:21:49;97458.56;;;25.97;61.93
55289;BME280;41154;45.394;5.734;2023-06-24T06:24:15;97457.53;;;25.05;62.75
55289;BME280;41154;45.394;5.734;2023-06-24T06:26:44;97458.28;;;25.57;62.20
55289;BME280;41154;45.394;5.734;2023-06-24T06:29:11;97456.94;;;26.79;60.00
55289;BME280;41154;45.394;5.734;2023-06-24T06:31:36;97458.00;;;27.68;56.58
55289;BME280;41154;45.394;5.734;2023-06-24T06:34:03;97452.25;;;29.36;51.84
55289;BME280;41154;45.394;5.734;2023-06-24T06:36:28;97460.88;;;27.88;57.01
55289;BME280;41154;45.394;5.734;2023-06-24T06:38:54;97463.03;;;26.72;57.21
55289;BME280;41154;45.394;5.734;2023-06-24T06:41:20;97452.25;;;29.36;50.49
55289;BME280;41154;45.394;5.734;2023-06-24T06:43:53;97458.88;;;28.01;56.17
55289;BME280;41154;45.394;5.734;2023-06-24T06:46:19;97441.69;;;28.87;53.77
55289;BME280;41154;45.394;5.734;2023-06-24T06:48:45;97455.78;;;28.18;55.76
55289;BME280;41154;45.394;5.734;2023-06-24T06:51:12;97451.78;;;30.86;47.96
55289;BME280;41154;45.394;5.734;2023-06-24T06:53:38;97454.72;;;28.71;55.20
55289;BME280;41154;45.394;5.734;2023-06-24T06:56:04;97453.66;;;28.59;53.95
55289;BME280;41154;45.394;5.734;2023-06-24T06:58:29;97453.41;;;29.94;49.27
55289;BME280;41154;45.394;5.734;2023-06-24T07:00:55;97455.22;;;29.28;51.67
55289;BME280;41154;45.394;5.734;2023-06-24T07:03:21;97446.06;;;29.43;52.38
55289;BME280;41154;45.394;5.734;2023-06-24T07:05:47;97450.16;;;29.14;52.66
55289;BME280;41154;45.394;5.734;2023-06-24T07:08:13;97448.63;;;31.78;45.84
55289;BME280;41154;45.394;5.734;2023-06-24T07:10:38;97450.56;;;29.32;48.93
55289;BME280;41154;45.394;5.734;2023-06-24T07:13:04;97447.72;;;30.79;45.97
55289;BME280;41154;45.394;5.734;2023-06-24T07:15:30;97443.13;;;29.94;44.83
55289;BME280;41154;45.394;5.734;2023-06-24T07:17:56;97444.03;;;31.56;44.56
55289;BME280;41154;45.394;5.734;2023-06-24T07:20:22;97451.41;;;31.78;42.90
55289;BME280;41154;45.394;5.734;2023-06-24T07:22:49;97449.47;;;31.48;43.13
55289;BME280;41154;45.394;5.734;2023-06-24T07:25:15;97447.00;;;31.74;41.02
55289;BME280;41154;45.394;5.734;2023-06-24T07:27:40;97449.78;;;31.77;41.68
55289;BME280;41154;45.394;5.734;2023-06-24T07:30:06;97449.41;;;30.61;45.38
55289;BME280;41154;45.394;5.734;2023-06-24T07:32:32;97451.09;;;32.24;41.17
55289;BME280;41154;45.394;5.734;2023-06-24T07:34:58;97449.97;;;31.92;40.52
55289;BME280;41154;45.394;5.734;2023-06-24T07:37:24;97444.94;;;32.04;40.79
55289;BME280;41154;45.394;5.734;2023-06-24T07:39:50;97441.31;;;30.49;41.79
55289;BME280;41154;45.394;5.734;2023-06-24T07:42:15;97442.66;;;32.10;39.27
55289;BME280;41154;45.394;5.734;2023-06-24T07:44:45;97434.63;;;33.02;38.77
55289;BME280;41154;45.394;5.734;2023-06-24T07:47:11;97438.56;;;32.97;37.44
55289;BME280;41154;45.394;5.734;2023-06-24T07:49:37;97433.88;;;32.08;41.23
55289;BME280;41154;45.394;5.734;2023-06-24T07:52:03;97431.03;;;32.97;38.00
55289;BME280;41154;45.394;5.734;2023-06-24T07:54:30;97426.50;;;31.17;42.17
55289;BME280;41154;45.394;5.734;2023-06-24T07:56:56;97431.63;;;33.36;38.23
55289;BME280;41154;45.394;5.734;2023-06-24T07:59:21;97433.81;;;33.82;36.42
55289;BME280;41154;45.394;5.734;2023-06-24T08:01:47;97434.06;;;33.52;36.39
55289;BME280;41154;45.394;5.734;2023-06-24T08:04:14;97431.56;;;32.58;37.47
55289;BME280;41154;45.394;5.734;2023-06-24T08:06:40;97430.53;;;33.65;37.01
55289;BME280;41154;45.394;5.734;2023-06-24T08:09:06;97431.03;;;33.82;37.09
55289;BME280;41154;45.394;5.734;2023-06-24T08:11:31;97439.41;;;31.67;38.70
55289;BME280;41154;45.394;5.734;2023-06-24T08:13:57;97433.38;;;33.80;35.33
55289;BME280;41154;45.394;5.734;2023-06-24T08:16:23;97428.16;;;33.60;35.92
55289;BME280;41154;45.394;5.734;2023-06-24T08:18:48;97429.28;;;33.45;38.13
55289;BME280;41154;45.394;5.734;2023-06-24T08:21:15;97432.44;;;32.70;36.60
55289;BME280;41154;45.394;5.734;2023-06-24T08:23:40;97430.44;;;31.47;38.37
55289;BME280;41154;45.394;5.734;2023-06-24T08:26:06;97426.69;;;31.02;39.33
55289;BME280;41154;45.394;5.734;2023-06-24T08:28:33;97424.41;;;32.09;37.58
55289;BME280;41154;45.394;5.734;2023-06-24T08:30:59;97419.53;;;32.47;37.95
55289;BME280;41154;45.394;5.734;2023-06-24T08:33:24;97420.69;;;33.93;36.40
55289;BME280;41154;45.394;5.734;2023-06-24T08:35:50;97421.56;;;32.05;38.56
55289;BME280;41154;45.394;5.734;2023-06-24T08:38:16;97423.44;;;33.72;35.72
55289;BME280;41154;45.394;5.734;2023-06-24T08:40:42;97441.19;;;32.75;36.29
55289;BME280;41154;45.394;5.734;2023-06-24T08:43:09;97430.16;;;33.63;36.47
55289;BME280;41154;45.394;5.734;2023-06-24T08:45:35;97430.75;;;33.21;36.54
55289;BME280;41154;45.394;5.734;2023-06-24T08:48:01;97416.94;;;30.85;40.76
55289;BME280;41154;45.394;5.734;2023-06-24T08:50:34;97427.00;;;33.72;37.82
55289;BME280;41154;45.394;5.734;2023-06-24T08:53:03;97428.16;;;33.60;36.87
55289;BME280;41154;45.394;5.734;2023-06-24T08:55:31;97432.19;;;33.84;35.40
55289;BME280;41154;45.394;5.734;2023-06-24T08:57:58;97433.72;;;33.64;36.56
55289;BME280;41154;45.394;5.734;2023-06-24T09:00:24;97435.06;;;33.11;36.34
55289;BME280;41154;45.394;5.734;2023-06-24T09:02:49;97437.06;;;33.14;36.66
55289;BME280;41154;45.394;5.734;2023-06-24T09:05:15;97425.91;;;34.20;36.19
55289;BME280;41154;45.394;5.734;2023-06-24T09:07:41;97431.94;;;31.41;38.28
55289;BME280;41154;45.394;5.734;2023-06-24T09:10:07;97427.28;;;30.91;40.86
55289;BME280;41154;45.394;5.734;2023-06-24T09:12:34;97431.84;;;33.02;38.54
55289;BME280;41154;45.394;5.734;2023-06-24T09:15:02;97433.72;;;32.31;38.10
55289;BME280;41154;45.394;5.734;2023-06-24T09:17:28;97428.03;;;31.45;38.53
55289;BME280;41154;45.394;5.734;2023-06-24T09:20:03;97426.41;;;32.60;38.12
55289;BME280;41154;45.394;5.734;2023-06-24T09:22:30;97416.06;;;32.61;38.47
55289;BME280;41154;45.394;5.734;2023-06-24T09:24:56;97419.50;;;31.58;40.89
55289;BME280;41154;45.394;5.734;2023-06-24T09:27:21;97424.66;;;32.93;40.06
55289;BME280;41154;45.394;5.734;2023-06-24T09:29:49;97417.34;;;33.41;36.16
55289;BME280;41154;45.394;5.734;2023-06-24T09:32:15;97429.00;;;32.91;36.31
55289;BME280;41154;45.394;5.734;2023-06-24T09:34:41;97424.13;;;31.19;40.72
55289;BME280;41154;45.394;5.734;2023-06-24T09:37:07;97426.34;;;30.80;39.79
55289;BME280;41154;45.394;5.734;2023-06-24T09:39:37;97421.72;;;28.94;43.75
55289;BME280;41154;45.394;5.734;2023-06-24T09:42:04;97423.06;;;27.72;46.63
55289;BME280;41154;45.394;5.734;2023-06-24T09:44:32;97421.00;;;28.97;47.01
55289;BME280;41154;45.394;5.734;2023-06-24T09:46:58;97421.47;;;27.87;48.00
55289;BME280;41154;45.394;5.734;2023-06-24T09:49:24;97412.72;;;28.29;50.24
55289;BME280;41154;45.394;5.734;2023-06-24T09:51:57;97408.00;;;27.54;51.37
55289;BME280;41154;45.394;5.734;2023-06-24T09:54:27;97401.84;;;28.05;53.60
55289;BME280;41154;45.394;5.734;2023-06-24T09:56:54;97398.13;;;29.16;47.37
55289;BME280;41154;45.394;5.734;2023-06-24T09:59:21;97398.38;;;28.08;47.18
55289;BME280;41154;45.394;5.734;2023-06-24T10:01:52;97388.25;;;28.12;46.43
55289;BME280;41154;45.394;5.734;2023-06-24T10:04:19;97397.34;;;27.68;48.67
55289;BME280;41154;45.394;5.734;2023-06-24T10:06:46;97395.44;;;27.28;53.78
55289;BME280;41154;45.394;5.734;2023-06-24T10:09:12;97390.19;;;27.51;51.06
55289;BME280;41154;45.394;5.734;2023-06-24T10:11:39;97391.47;;;27.54;49.07
55289;BME280;41154;45.394;5.734;2023-06-24T10:14:05;97391.69;;;27.20;51.65
55289;BME280;41154;45.394;5.734;2023-06-24T10:16:31;97397.22;;;27.49;50.41
55289;BME280;41154;45.394;5.734;2023-06-24T10:19:01;97383.84;;;27.63;49.19
55289;BME280;41154;45.394;5.734;2023-06-24T10:22:07;97387.38;;;27.64;51.42
55289;BME280;41154;45.394;5.734;2023-06-24T10:24:35;97391.50;;;27.13;51.00
55289;BME280;41154;45.394;5.734;2023-06-24T10:27:09;97389.88;;;27.12;55.82
55289;BME280;41154;45.394;5.734;2023-06-24T10:29:39;97383.94;;;27.10;52.17
55289;BME280;41154;45.394;5.734;2023-06-24T10:32:08;97383.56;;;26.83;53.70
55289;BME280;41154;45.394;5.734;2023-06-24T10:34:39;97378.66;;;27.05;60.81
55289;BME280;41154;45.394;5.734;2023-06-24T10:37:20;97379.09;;;27.48;61.25
55289;BME280;41154;45.394;5.734;2023-06-24T10:39:53;97368.56;;;27.37;56.22
55289;BME280;41154;45.394;5.734;2023-06-24T10:47:37;97370.03;;;26.41;59.25
55289;BME280;41154;45.394;5.734;2023-06-24T10:50:04;97367.09;;;27.27;67.26
55289;BME280;41154;45.394;5.734;2023-06-24T10:52:30;97356.38;;;27.67;60.28
55289;BME280;41154;45.394;5.734;2023-06-24T10:54:57;97367.25;;;26.78;59.23
55289;BME280;41154;45.394;5.734;2023-06-24T10:57:26;97365.00;;;26.31;58.62
55289;BME280;41154;45.394;5.734;2023-06-24T10:59:54;97366.25;;;26.70;61.92
55289;BME280;41154;45.394;5.734;2023-06-24T11:02:22;97364.16;;;26.55;62.04
55289;BME280;41154;45.394;5.734;2023-06-24T11:04:49;97357.16;;;25.96;58.66
55289;BME280;41154;45.394;5.734;2023-06-24T11:07:18;97351.25;;;26.31;59.61
55289;BME280;41154;45.394;5.734;2023-06-24T11:10:16;97349.16;;;26.77;57.59
55289;BME280;41154;45.394;5.734;2023-06-24T11:12:43;97349.63;;;27.36;65.19
55289;BME280;41154;45.394;5.734;2023-06-24T11:15:11;97338.22;;;27.21;63.39
55289;BME280;41154;45.394;5.734;2023-06-24T11:17:38;97346.44;;;27.05;60.03
55289;BME280;41154;45.394;5.734;2023-06-24T11:20:14;97352.63;;;26.25;61.41
55289;BME280;41154;45.394;5.734;2023-06-24T11:22:40;97347.59;;;26.27;60.69
55289;BME280;41154;45.394;5.734;2023-06-24T11:25:17;97341.53;;;26.86;61.21
55289;BME280;41154;45.394;5.734;2023-06-24T11:27:43;97343.47;;;26.33;60.66
55289;BME280;41154;45.394;5.734;2023-06-24T11:30:10;97338.78;;;26.09;60.98
55289;BME280;41154;45.394;5.734;2023-06-24T11:32:37;97346.78;;;26.14;62.86
55289;BME280;41154;45.394;5.734;2023-06-24T11:35:09;97339.25;;;26.88;61.28
55289;BME280;41154;45.394;5.734;2023-06-24T11:37:36;97341.41;;;26.05;59.39
55289;BME280;41154;45.394;5.734;2023-06-24T11:40:06;97338.38;;;26.60;57.89
55289;BME280;41154;45.394;5.734;2023-06-24T11:42:36;97329.06;;;26.64;56.85
55289;BME280;41154;45.394;5.734;2023-06-24T11:45:04;97318.31;;;26.71;57.52
55289;BME280;41154;45.394;5.734;2023-06-24T11:47:34;97325.78;;;25.72;57.64
55289;BME280;41154;45.394;5.734;2023-06-24T11:50:01;97333.97;;;26.30;61.80
55289;BME280;41154;45.394;5.734;2023-06-24T11:55:11;97322.38;;;26.25;60.39
55289;BME280;41154;45.394;5.734;2023-06-24T11:58:00;97321.06;;;26.59;57.63
55289;BME280;41154;45.394;5.734;2023-06-24T12:00:33;97314.22;;;25.91;57.39
55289;BME280;41154;45.394;5.734;2023-06-24T12:03:04;97309.19;;;25.81;59.36
55289;BME280;41154;45.394;5.734;2023-06-24T12:05:32;97310.13;;;26.22;62.25
55289;BME280;41154;45.394;5.734;2023-06-24T12:08:08;97304.75;;;26.13;61.36
55289;BME280;41154;45.394;5.734;2023-06-24T12:10:35;97298.56;;;26.29;59.84
55289;BME280;41154;45.394;5.734;2023-06-24T12:13:02;97298.22;;;25.93;58.21
55289;BME280;41154;45.394;5.734;2023-06-24T12:15:29;97298.78;;;26.11;59.23
55289;BME280;41154;45.394;5.734;2023-06-24T12:17:55;97299.69;;;26.40;58.43
55289;BME280;41154;45.394;5.734;2023-06-24T12:20:21;97297.66;;;26.25;58.55
55289;BME280;41154;45.394;5.734;2023-06-24T12:22:48;97298.66;;;26.85;57.65
55289;BME280;41154;45.394;5.734;2023-06-24T12:25:15;97287.56;;;26.82;56.70
55289;BME280;41154;45.394;5.734;2023-06-24T12:27:42;97287.56;;;26.29;59.18
55289;BME280;41154;45.394;5.734;2023-06-24T12:30:09;97292.38;;;26.32;57.63
55289;BME280;41154;45.394;5.734;2023-06-24T12:32:35;97288.09;;;26.47;59.43
55289;BME280;41154;45.394;5.734;2023-06-24T12:35:02;97289.25;;;26.86;60.42
55289;BME280;41154;45.394;5.734;2023-06-24T12:37:32;97286.41;;;26.83;55.97
55289;BME280;41154;45.394;5.734;2023-06-24T12:39:59;97277.84;;;26.72;54.72
55289;BME280;41154;45.394;5.734;2023-06-24T12:42:25;97277.50;;;26.73;56.90
55289;BME280;41154;45.394;5.734;2023-06-24T12:44:52;97281.06;;;26.74;55.48
55289;BME280;41154;45.394;5.734;2023-06-24T12:47:18;97284.59;;;26.22;56.38
55289;BME280;41154;45.394;5.734;2023-06-24T12:49:44;97280.56;;;26.31;56.39
55289;BME280;41154;45.394;5.734;2023-06-24T12:52:09;97281.16;;;26.78;53.96
55289;BME280;41154;45.394;5.734;2023-06-24T12:54:35;97278.81;;;27.08;54.90
55289;BME280;41154;45.394;5.734;2023-06-24T12:57:01;97267.03;;;27.07;56.75
55289;BME280;41154;45.394;5.734;2023-06-24T12:59:27;97278.84;;;26.80;55.08
55289;BME280;41154;45.394;5.734;2023-06-24T13:01:53;97273.50;;;26.59;53.66
55289;BME280;41154;45.394;5.734;2023-06-24T13:04:19;97262.84;;;26.98;56.59
55289;BME280;41154;45.394;5.734;2023-06-24T13:06:48;97257.75;;;26.31;51.95
55289;BME280;41154;45.394;5.734;2023-06-24T13:09:14;97253.78;;;26.57;55.85
55289;BME280;41154;45.394;5.734;2023-06-24T13:11:40;97254.06;;;26.80;54.63
55289;BME280;41154;45.394;5.734;2023-06-24T13:14:06;97254.81;;;26.93;53.71